Terminal Aerodrome Forecast
Issued by NWS Nashville, TN

Home | Current Version | Previous Version | Text Only | Print | Product List | Glossary On
Versions: 1 2 3 4 5 6 7 8 9 10 11 12 13 14 15
000
FTUS44 KOHX 301800 AAA
TAFBNA
TAF AMD
KBNA 301854Z 3019/3118 32010G17KT P6SM FEW150 SCT250
     FM310100 VRB03KT P6SM SKC
     FM311500 22007G15KT P6SM SCT050=

USA.gov is the U.S. government's official web portal to all federal, state and local government web resources and services.